sensor_id;sensor_type;location;lat;lon;timestamp;temperature;humidity
26707;DHT22;14319;49.422;10.934;2023-02-23T00:01:12;9.30;85.10
26707;DHT22;14319;49.422;10.934;2023-02-23T00:03:13;9.30;85.10
26707;DHT22;14319;49.422;10.934;2023-02-23T00:05:15;9.30;85.30
26707;DHT22;14319;49.422;10.934;2023-02-23T00:07:16;9.20;85.50
26707;DHT22;14319;49.422;10.934;2023-02-23T00:09:19;9.10;85.80
26707;DHT22;14319;49.422;10.934;2023-02-23T00:11:27;9.10;85.90
26707;DHT22;14319;49.422;10.934;2023-02-23T00:13:28;9.10;86.00
26707;DHT22;14319;49.422;10.934;2023-02-23T00:15:32;9.10;85.90
26707;DHT22;14319;49.422;10.934;2023-02-23T00:17:36;9.10;85.60
26707;DHT22;14319;49.422;10.934;2023-02-23T00:19:37;9.10;85.40
26707;DHT22;14319;49.422;10.934;2023-02-23T00:21:38;9.10;85.60
26707;DHT22;14319;49.422;10.934;2023-02-23T00:23:41;9.00;85.70
26707;DHT22;14319;49.422;10.934;2023-02-23T00:25:42;9.10;85.90
26707;DHT22;14319;49.422;10.934;2023-02-23T00:27:45;9.10;86.10
26707;DHT22;14319;49.422;10.934;2023-02-23T00:29:48;9.00;85.20
26707;DHT22;14319;49.422;10.934;2023-02-23T00:31:53;9.00;85.70
26707;DHT22;14319;49.422;10.934;2023-02-23T00:33:57;8.80;85.40
26707;DHT22;14319;49.422;10.934;2023-02-23T00:36:12;8.80;86.80
26707;DHT22;14319;49.422;10.934;2023-02-23T00:38:13;8.90;86.60
26707;DHT22;14319;49.422;10.934;2023-02-23T00:40:19;8.90;86.00
26707;DHT22;14319;49.422;10.934;2023-02-23T00:42:25;8.90;85.20
26707;DHT22;14319;49.422;10.934;2023-02-23T00:44:35;8.80;85.10
26707;DHT22;14319;49.422;10.934;2023-02-23T00:46:44;8.90;85.10
26707;DHT22;14319;49.422;10.934;2023-02-23T00:48:45;8.50;86.10
26707;DHT22;14319;49.422;10.934;2023-02-23T00:50:46;8.40;87.30
26707;DHT22;14319;49.422;10.934;2023-02-23T00:52:52;8.60;87.20
26707;DHT22;14319;49.422;10.934;2023-02-23T00:54:53;8.60;86.80
26707;DHT22;14319;49.422;10.934;2023-02-23T00:56:55;8.60;87.10
26707;DHT22;14319;49.422;10.934;2023-02-23T00:58:56;8.60;86.60
26707;DHT22;14319;49.422;10.934;2023-02-23T01:01:00;8.70;86.80
26707;DHT22;14319;49.422;10.934;2023-02-23T01:03:00;8.70;86.40
26707;DHT22;14319;49.422;10.934;2023-02-23T01:05:01;8.70;86.70
26707;DHT22;14319;49.422;10.934;2023-02-23T01:07:04;8.70;86.60
26707;DHT22;14319;49.422;10.934;2023-02-23T01:09:12;8.60;86.40
26707;DHT22;14319;49.422;10.934;2023-02-23T01:11:20;8.50;86.40
26707;DHT22;14319;49.422;10.934;2023-02-23T01:13:21;8.60;86.60
26707;DHT22;14319;49.422;10.934;2023-02-23T01:15:22;8.50;86.60
26707;DHT22;14319;49.422;10.934;2023-02-23T01:17:26;8.50;86.70
26707;DHT22;14319;49.422;10.934;2023-02-23T01:19:27;8.50;86.70
26707;DHT22;14319;49.422;10.934;2023-02-23T01:21:33;8.50;86.80
26707;DHT22;14319;49.422;10.934;2023-02-23T01:23:34;8.50;86.30
26707;DHT22;14319;49.422;10.934;2023-02-23T01:25:34;8.50;86.40
26707;DHT22;14319;49.422;10.934;2023-02-23T01:27:35;8.60;86.50
26707;DHT22;14319;49.422;10.934;2023-02-23T01:29:36;8.60;85.80
26707;DHT22;14319;49.422;10.934;2023-02-23T01:31:38;8.50;85.90
26707;DHT22;14319;49.422;10.934;2023-02-23T01:33:39;8.50;85.80
26707;DHT22;14319;49.422;10.934;2023-02-23T01:35:39;8.60;86.10
26707;DHT22;14319;49.422;10.934;2023-02-23T01:37:41;8.60;85.60
26707;DHT22;14319;49.422;10.934;2023-02-23T01:39:42;8.50;86.80
26707;DHT22;14319;49.422;10.934;2023-02-23T01:41:44;8.60;85.30
26707;DHT22;14319;49.422;10.934;2023-02-23T01:45:58;8.70;84.50
26707;DHT22;14319;49.422;10.934;2023-02-23T01:48:01;8.60;85.30
26707;DHT22;14319;49.422;10.934;2023-02-23T01:50:05;8.60;85.20
26707;DHT22;14319;49.422;10.934;2023-02-23T01:52:12;8.60;85.10
26707;DHT22;14319;49.422;10.934;2023-02-23T01:54:20;8.60;84.80
26707;DHT22;14319;49.422;10.934;2023-02-23T01:56:27;8.70;84.70
26707;DHT22;14319;49.422;10.934;2023-02-23T01:58:29;8.60;84.90
26707;DHT22;14319;49.422;10.934;2023-02-23T02:00:31;8.50;85.40
26707;DHT22;14319;49.422;10.934;2023-02-23T02:02:35;8.40;85.50
26707;DHT22;14319;49.422;10.934;2023-02-23T02:04:38;8.30;85.90
26707;DHT22;14319;49.422;10.934;2023-02-23T02:06:47;8.30;86.20
26707;DHT22;14319;49.422;10.934;2023-02-23T02:08:51;8.20;86.30
26707;DHT22;14319;49.422;10.934;2023-02-23T02:10:54;8.20;86.70
26707;DHT22;14319;49.422;10.934;2023-02-23T02:12:56;8.10;87.30
26707;DHT22;14319;49.422;10.934;2023-02-23T02:14:57;8.10;87.70
26707;DHT22;14319;49.422;10.934;2023-02-23T02:22:05;8.40;86.10
26707;DHT22;14319;49.422;10.934;2023-02-23T02:26:56;8.40;85.40
26707;DHT22;14319;49.422;10.934;2023-02-23T02:29:27;8.40;85.40
26707;DHT22;14319;49.422;10.934;2023-02-23T02:38:48;8.10;86.90
26707;DHT22;14319;49.422;10.934;2023-02-23T02:41:37;8.00;87.20
26707;DHT22;14319;49.422;10.934;2023-02-23T02:43:27;8.00;86.90
26707;DHT22;14319;49.422;10.934;2023-02-23T02:52:18;8.10;87.40
26707;DHT22;14319;49.422;10.934;2023-02-23T02:56:24;8.00;87.50
26707;DHT22;14319;49.422;10.934;2023-02-23T02:58:28;8.00;87.80
26707;DHT22;14319;49.422;10.934;2023-02-23T03:00:35;7.90;88.10
26707;DHT22;14319;49.422;10.934;2023-02-23T03:02:55;8.00;88.00
26707;DHT22;14319;49.422;10.934;2023-02-23T03:05:17;8.10;87.40
26707;DHT22;14319;49.422;10.934;2023-02-23T03:10:38;8.10;86.90
26707;DHT22;14319;49.422;10.934;2023-02-23T03:15:45;8.10;86.80
26707;DHT22;14319;49.422;10.934;2023-02-23T03:20:52;7.90;87.40
26707;DHT22;14319;49.422;10.934;2023-02-23T03:28:34;7.70;87.90
26707;DHT22;14319;49.422;10.934;2023-02-23T03:31:13;7.70;87.80
26707;DHT22;14319;49.422;10.934;2023-02-23T03:33:51;7.70;87.90
26707;DHT22;14319;49.422;10.934;2023-02-23T03:36:18;7.60;88.30
26707;DHT22;14319;49.422;10.934;2023-02-23T03:38:57;7.60;88.50
26707;DHT22;14319;49.422;10.934;2023-02-23T03:41:20;7.60;88.50
26707;DHT22;14319;49.422;10.934;2023-02-23T03:43:46;7.60;88.60
26707;DHT22;14319;49.422;10.934;2023-02-23T03:46:08;7.60;88.40
26707;DHT22;14319;49.422;10.934;2023-02-23T03:48:30;7.50;88.50
26707;DHT22;14319;49.422;10.934;2023-02-23T03:50:53;7.50;88.60
26707;DHT22;14319;49.422;10.934;2023-02-23T03:53:16;7.40;88.80
26707;DHT22;14319;49.422;10.934;2023-02-23T03:55:40;7.40;88.70
26707;DHT22;14319;49.422;10.934;2023-02-23T03:58:02;7.40;88.80
26707;DHT22;14319;49.422;10.934;2023-02-23T04:00:30;7.40;88.70
26707;DHT22;14319;49.422;10.934;2023-02-23T04:02:52;7.30;89.10
26707;DHT22;14319;49.422;10.934;2023-02-23T04:05:16;7.30;88.90
26707;DHT22;14319;49.422;10.934;2023-02-23T04:07:37;7.40;89.00
26707;DHT22;14319;49.422;10.934;2023-02-23T04:09:57;7.20;88.90
26707;DHT22;14319;49.422;10.934;2023-02-23T04:12:30;7.20;88.80
26707;DHT22;14319;49.422;10.934;2023-02-23T04:14:59;7.20;89.00
26707;DHT22;14319;49.422;10.934;2023-02-23T04:17:01;7.20;89.00
26707;DHT22;14319;49.422;10.934;2023-02-23T04:19:03;7.30;89.20
26707;DHT22;14319;49.422;10.934;2023-02-23T04:21:05;7.30;89.00
26707;DHT22;14319;49.422;10.934;2023-02-23T04:23:06;7.20;89.30
26707;DHT22;14319;49.422;10.934;2023-02-23T04:25:07;7.20;89.60
26707;DHT22;14319;49.422;10.934;2023-02-23T04:27:08;7.10;90.10
26707;DHT22;14319;49.422;10.934;2023-02-23T04:29:10;7.10;91.40
26707;DHT22;14319;49.422;10.934;2023-02-23T04:31:10;7.10;90.80
26707;DHT22;14319;49.422;10.934;2023-02-23T04:33:11;7.10;90.80
26707;DHT22;14319;49.422;10.934;2023-02-23T04:35:12;7.10;90.00
26707;DHT22;14319;49.422;10.934;2023-02-23T04:37:13;7.10;89.90
26707;DHT22;14319;49.422;10.934;2023-02-23T04:39:13;7.00;90.10
26707;DHT22;14319;49.422;10.934;2023-02-23T04:41:14;7.00;90.00
26707;DHT22;14319;49.422;10.934;2023-02-23T04:43:15;7.10;90.30
26707;DHT22;14319;49.422;10.934;2023-02-23T04:45:16;7.10;89.80
26707;DHT22;14319;49.422;10.934;2023-02-23T04:47:16;7.00;90.10
26707;DHT22;14319;49.422;10.934;2023-02-23T04:49:17;7.00;90.70
26707;DHT22;14319;49.422;10.934;2023-02-23T04:51:17;7.00;90.30
26707;DHT22;14319;49.422;10.934;2023-02-23T04:53:18;7.00;90.20
26707;DHT22;14319;49.422;10.934;2023-02-23T04:55:21;7.00;90.40
26707;DHT22;14319;49.422;10.934;2023-02-23T04:57:21;7.00;90.40
26707;DHT22;14319;49.422;10.934;2023-02-23T04:59:22;7.00;90.20
26707;DHT22;14319;49.422;10.934;2023-02-23T05:01:23;7.00;90.30
26707;DHT22;14319;49.422;10.934;2023-02-23T05:03:23;7.10;90.40
26707;DHT22;14319;49.422;10.934;2023-02-23T05:05:24;7.00;90.10
26707;DHT22;14319;49.422;10.934;2023-02-23T05:07:25;7.10;90.10
26707;DHT22;14319;49.422;10.934;2023-02-23T05:09:25;7.10;90.10
26707;DHT22;14319;49.422;10.934;2023-02-23T05:11:26;7.10;90.10
26707;DHT22;14319;49.422;10.934;2023-02-23T05:13:27;7.20;89.80
26707;DHT22;14319;49.422;10.934;2023-02-23T05:15:27;7.30;89.30
26707;DHT22;14319;49.422;10.934;2023-02-23T05:17:28;7.30;89.10
26707;DHT22;14319;49.422;10.934;2023-02-23T05:19:29;7.30;88.90
26707;DHT22;14319;49.422;10.934;2023-02-23T05:21:29;7.40;88.70
26707;DHT22;14319;49.422;10.934;2023-02-23T05:23:30;7.40;88.60
26707;DHT22;14319;49.422;10.934;2023-02-23T05:25:31;7.40;88.40
26707;DHT22;14319;49.422;10.934;2023-02-23T05:27:32;7.30;88.70
26707;DHT22;14319;49.422;10.934;2023-02-23T05:29:33;7.30;88.80
26707;DHT22;14319;49.422;10.934;2023-02-23T05:31:34;7.20;89.00
26707;DHT22;14319;49.422;10.934;2023-02-23T05:33:36;7.20;89.10
26707;DHT22;14319;49.422;10.934;2023-02-23T05:35:41;7.20;88.90
26707;DHT22;14319;49.422;10.934;2023-02-23T05:37:42;7.20;88.70
26707;DHT22;14319;49.422;10.934;2023-02-23T05:39:45;7.20;89.00
26707;DHT22;14319;49.422;10.934;2023-02-23T05:41:46;7.30;89.30
26707;DHT22;14319;49.422;10.934;2023-02-23T05:43:47;7.20;88.80
26707;DHT22;14319;49.422;10.934;2023-02-23T05:45:50;7.20;89.00
26707;DHT22;14319;49.422;10.934;2023-02-23T05:47:51;7.20;89.20
26707;DHT22;14319;49.422;10.934;2023-02-23T05:49:51;7.20;89.50
26707;DHT22;14319;49.422;10.934;2023-02-23T05:51:52;7.20;89.70
26707;DHT22;14319;49.422;10.934;2023-02-23T05:53:53;7.20;89.60
26707;DHT22;14319;49.422;10.934;2023-02-23T05:55:53;7.20;89.90
26707;DHT22;14319;49.422;10.934;2023-02-23T05:57:54;7.20;90.20
26707;DHT22;14319;49.422;10.934;2023-02-23T05:59:55;7.20;90.20
26707;DHT22;14319;49.422;10.934;2023-02-23T06:01:56;7.10;90.40
26707;DHT22;14319;49.422;10.934;2023-02-23T06:03:56;7.20;90.40
26707;DHT22;14319;49.422;10.934;2023-02-23T06:05:57;7.20;90.30
26707;DHT22;14319;49.422;10.934;2023-02-23T06:07:58;7.30;90.00
26707;DHT22;14319;49.422;10.934;2023-02-23T06:09:59;7.30;90.10
26707;DHT22;14319;49.422;10.934;2023-02-23T06:11:59;7.30;90.10
26707;DHT22;14319;49.422;10.934;2023-02-23T06:14:00;7.40;89.70
26707;DHT22;14319;49.422;10.934;2023-02-23T06:16:01;7.40;89.80
26707;DHT22;14319;49.422;10.934;2023-02-23T06:18:01;7.40;89.70
26707;DHT22;14319;49.422;10.934;2023-02-23T06:20:03;7.50;89.80
26707;DHT22;14319;49.422;10.934;2023-02-23T06:22:04;7.50;89.50
26707;DHT22;14319;49.422;10.934;2023-02-23T06:24:05;7.50;89.20
26707;DHT22;14319;49.422;10.934;2023-02-23T06:26:06;7.50;89.10
26707;DHT22;14319;49.422;10.934;2023-02-23T06:28:08;7.50;89.30
26707;DHT22;14319;49.422;10.934;2023-02-23T06:30:10;7.50;89.40
26707;DHT22;14319;49.422;10.934;2023-02-23T06:32:11;7.60;89.40
26707;DHT22;14319;49.422;10.934;2023-02-23T06:34:18;7.50;89.40
26707;DHT22;14319;49.422;10.934;2023-02-23T06:36:19;7.60;89.30
26707;DHT22;14319;49.422;10.934;2023-02-23T06:38:20;7.50;89.40
26707;DHT22;14319;49.422;10.934;2023-02-23T06:40:21;7.50;89.50
26707;DHT22;14319;49.422;10.934;2023-02-23T06:42:21;7.50;89.70
26707;DHT22;14319;49.422;10.934;2023-02-23T06:44:22;7.50;90.00
26707;DHT22;14319;49.422;10.934;2023-02-23T06:46:23;7.50;90.20
26707;DHT22;14319;49.422;10.934;2023-02-23T06:48:24;7.50;90.30
26707;DHT22;14319;49.422;10.934;2023-02-23T06:50:25;7.60;90.40
26707;DHT22;14319;49.422;10.934;2023-02-23T06:52:25;7.70;90.20
26707;DHT22;14319;49.422;10.934;2023-02-23T06:54:26;7.70;89.80
26707;DHT22;14319;49.422;10.934;2023-02-23T06:56:26;7.80;89.60
26707;DHT22;14319;49.422;10.934;2023-02-23T06:58:27;7.90;89.70
26707;DHT22;14319;49.422;10.934;2023-02-23T07:00:28;7.90;89.40
26707;DHT22;14319;49.422;10.934;2023-02-23T07:02:29;8.00;88.90
26707;DHT22;14319;49.422;10.934;2023-02-23T07:04:31;8.10;88.60
26707;DHT22;14319;49.422;10.934;2023-02-23T07:06:32;8.10;88.30
26707;DHT22;14319;49.422;10.934;2023-02-23T07:08:33;8.20;88.10
26707;DHT22;14319;49.422;10.934;2023-02-23T07:10:34;8.20;87.90
26707;DHT22;14319;49.422;10.934;2023-02-23T07:12:34;8.20;88.20
26707;DHT22;14319;49.422;10.934;2023-02-23T07:14:36;8.20;88.30
26707;DHT22;14319;49.422;10.934;2023-02-23T07:16:39;8.20;88.50
26707;DHT22;14319;49.422;10.934;2023-02-23T07:18:40;8.20;88.40
26707;DHT22;14319;49.422;10.934;2023-02-23T07:20:40;8.20;88.20
26707;DHT22;14319;49.422;10.934;2023-02-23T07:22:41;8.20;88.20
26707;DHT22;14319;49.422;10.934;2023-02-23T07:24:42;8.00;87.90
26707;DHT22;14319;49.422;10.934;2023-02-23T07:26:42;7.90;89.50
26707;DHT22;14319;49.422;10.934;2023-02-23T07:28:45;8.00;89.20
26707;DHT22;14319;49.422;10.934;2023-02-23T07:30:46;8.10;88.90
26707;DHT22;14319;49.422;10.934;2023-02-23T07:32:52;8.20;88.60
26707;DHT22;14319;49.422;10.934;2023-02-23T07:34:53;8.30;88.40
26707;DHT22;14319;49.422;10.934;2023-02-23T07:36:54;8.30;88.10
26707;DHT22;14319;49.422;10.934;2023-02-23T07:38:54;8.40;88.00
26707;DHT22;14319;49.422;10.934;2023-02-23T07:40:55;8.40;88.00
26707;DHT22;14319;49.422;10.934;2023-02-23T07:42:56;8.50;88.20
26707;DHT22;14319;49.422;10.934;2023-02-23T07:44:56;8.40;88.10
26707;DHT22;14319;49.422;10.934;2023-02-23T07:46:57;8.50;88.70
26707;DHT22;14319;49.422;10.934;2023-02-23T07:48:57;8.60;88.70
26707;DHT22;14319;49.422;10.934;2023-02-23T07:50:58;8.50;88.40
26707;DHT22;14319;49.422;10.934;2023-02-23T07:52:59;8.60;88.10
26707;DHT22;14319;49.422;10.934;2023-02-23T07:54:59;8.70;88.20
26707;DHT22;14319;49.422;10.934;2023-02-23T07:57:00;8.70;88.40
26707;DHT22;14319;49.422;10.934;2023-02-23T07:59:01;8.80;88.30
26707;DHT22;14319;49.422;10.934;2023-02-23T08:01:01;8.80;88.10
26707;DHT22;14319;49.422;10.934;2023-02-23T08:03:02;8.80;88.10
26707;DHT22;14319;49.422;10.934;2023-02-23T08:05:03;8.90;88.20
26707;DHT22;14319;49.422;10.934;2023-02-23T08:07:04;8.80;88.20
26707;DHT22;14319;49.422;10.934;2023-02-23T08:09:04;8.90;88.40
26707;DHT22;14319;49.422;10.934;2023-02-23T08:11:06;8.90;88.30
26707;DHT22;14319;49.422;10.934;2023-02-23T08:13:07;8.90;88.50
26707;DHT22;14319;49.422;10.934;2023-02-23T08:15:08;9.00;88.50
26707;DHT22;14319;49.422;10.934;2023-02-23T08:17:09;9.00;88.80
26707;DHT22;14319;49.422;10.934;2023-02-23T08:19:10;8.90;89.00
26707;DHT22;14319;49.422;10.934;2023-02-23T08:21:11;8.90;89.20
26707;DHT22;14319;49.422;10.934;2023-02-23T08:23:12;8.70;89.70
26707;DHT22;14319;49.422;10.934;2023-02-23T08:25:12;8.80;90.30
26707;DHT22;14319;49.422;10.934;2023-02-23T08:27:13;8.80;90.60
26707;DHT22;14319;49.422;10.934;2023-02-23T08:29:14;8.80;90.30
26707;DHT22;14319;49.422;10.934;2023-02-23T08:31:14;8.80;90.20
26707;DHT22;14319;49.422;10.934;2023-02-23T08:33:17;8.70;91.30
26707;DHT22;14319;49.422;10.934;2023-02-23T08:35:18;8.60;91.20
26707;DHT22;14319;49.422;10.934;2023-02-23T08:37:19;8.70;91.30
26707;DHT22;14319;49.422;10.934;2023-02-23T08:39:20;8.70;90.80
26707;DHT22;14319;49.422;10.934;2023-02-23T08:41:21;8.60;91.30
26707;DHT22;14319;49.422;10.934;2023-02-23T08:43:21;8.50;91.70
26707;DHT22;14319;49.422;10.934;2023-02-23T08:45:22;8.50;92.00
26707;DHT22;14319;49.422;10.934;2023-02-23T08:47:22;8.60;92.20
26707;DHT22;14319;49.422;10.934;2023-02-23T08:49:24;8.60;91.50
26707;DHT22;14319;49.422;10.934;2023-02-23T08:51:25;8.60;91.80
26707;DHT22;14319;49.422;10.934;2023-02-23T08:53:26;8.60;91.80
26707;DHT22;14319;49.422;10.934;2023-02-23T08:55:28;8.60;92.30
26707;DHT22;14319;49.422;10.934;2023-02-23T08:57:32;8.70;91.10
26707;DHT22;14319;49.422;10.934;2023-02-23T08:59:33;8.60;90.90
26707;DHT22;14319;49.422;10.934;2023-02-23T09:01:34;8.60;92.40
26707;DHT22;14319;49.422;10.934;2023-02-23T09:03:34;8.80;92.20
26707;DHT22;14319;49.422;10.934;2023-02-23T09:05:36;8.80;91.70
26707;DHT22;14319;49.422;10.934;2023-02-23T09:07:39;9.00;91.10
26707;DHT22;14319;49.422;10.934;2023-02-23T09:09:40;8.90;90.90
26707;DHT22;14319;49.422;10.934;2023-02-23T09:11:41;8.90;91.60
26707;DHT22;14319;49.422;10.934;2023-02-23T09:13:42;8.90;91.40
26707;DHT22;14319;49.422;10.934;2023-02-23T09:15:43;8.80;92.00
26707;DHT22;14319;49.422;10.934;2023-02-23T09:17:43;9.00;91.80
26707;DHT22;14319;49.422;10.934;2023-02-23T09:19:44;9.10;91.60
26707;DHT22;14319;49.422;10.934;2023-02-23T09:21:45;9.00;91.10
26707;DHT22;14319;49.422;10.934;2023-02-23T09:23:46;9.10;90.80
26707;DHT22;14319;49.422;10.934;2023-02-23T09:25:49;9.20;91.20
26707;DHT22;14319;49.422;10.934;2023-02-23T09:27:51;9.20;90.40
26707;DHT22;14319;49.422;10.934;2023-02-23T09:29:52;9.10;91.00
26707;DHT22;14319;49.422;10.934;2023-02-23T09:31:52;9.00;91.60
26707;DHT22;14319;49.422;10.934;2023-02-23T09:33:55;8.80;92.40
26707;DHT22;14319;49.422;10.934;2023-02-23T09:35:56;8.80;93.20
26707;DHT22;14319;49.422;10.934;2023-02-23T09:37:57;8.80;92.90
26707;DHT22;14319;49.422;10.934;2023-02-23T09:39:57;9.00;92.60
26707;DHT22;14319;49.422;10.934;2023-02-23T09:42:59;9.10;92.60
26707;DHT22;14319;49.422;10.934;2023-02-23T09:44:54;9.20;92.00
26707;DHT22;14319;49.422;10.934;2023-02-23T09:47:48;9.30;91.20
26707;DHT22;14319;49.422;10.934;2023-02-23T09:49:52;9.20;91.80
26707;DHT22;14319;49.422;10.934;2023-02-23T09:51:56;9.10;93.10
26707;DHT22;14319;49.422;10.934;2023-02-23T09:53:59;9.20;93.30
26707;DHT22;14319;49.422;10.934;2023-02-23T09:56:06;9.20;93.00
26707;DHT22;14319;49.422;10.934;2023-02-23T09:58:21;9.30;92.30
26707;DHT22;14319;49.422;10.934;2023-02-23T10:00:24;9.30;92.70
26707;DHT22;14319;49.422;10.934;2023-02-23T10:02:33;9.50;92.40
26707;DHT22;14319;49.422;10.934;2023-02-23T10:04:44;9.70;91.80
26707;DHT22;14319;49.422;10.934;2023-02-23T10:09:30;9.50;92.70
26707;DHT22;14319;49.422;10.934;2023-02-23T10:11:50;9.40;92.90
26707;DHT22;14319;49.422;10.934;2023-02-23T10:14:03;9.40;93.80
26707;DHT22;14319;49.422;10.934;2023-02-23T10:16:23;9.60;93.10
26707;DHT22;14319;49.422;10.934;2023-02-23T10:23:39;10.10;91.70
26707;DHT22;14319;49.422;10.934;2023-02-23T10:25:46;10.10;92.40
26707;DHT22;14319;49.422;10.934;2023-02-23T10:27:49;10.20;92.20
26707;DHT22;14319;49.422;10.934;2023-02-23T10:29:52;10.30;91.90
26707;DHT22;14319;49.422;10.934;2023-02-23T10:32:05;10.20;91.60
26707;DHT22;14319;49.422;10.934;2023-02-23T10:34:12;10.20;92.20
26707;DHT22;14319;49.422;10.934;2023-02-23T10:36:17;10.10;92.20
26707;DHT22;14319;49.422;10.934;2023-02-23T10:38:21;10.00;93.30
26707;DHT22;14319;49.422;10.934;2023-02-23T10:40:26;9.90;94.20
26707;DHT22;14319;49.422;10.934;2023-02-23T10:42:27;10.10;94.30
26707;DHT22;14319;49.422;10.934;2023-02-23T10:44:28;10.20;92.50
26707;DHT22;14319;49.422;10.934;2023-02-23T10:46:38;10.20;91.60
26707;DHT22;14319;49.422;10.934;2023-02-23T10:48:40;10.20;91.50
26707;DHT22;14319;49.422;10.934;2023-02-23T10:50:42;10.30;91.20
26707;DHT22;14319;49.422;10.934;2023-02-23T10:52:46;10.30;91.10
26707;DHT22;14319;49.422;10.934;2023-02-23T10:54:49;10.30;90.70
26707;DHT22;14319;49.422;10.934;2023-02-23T10:56:50;10.40;91.20
26707;DHT22;14319;49.422;10.934;2023-02-23T10:58:54;10.60;91.10
26707;DHT22;14319;49.422;10.934;2023-02-23T11:01:01;10.80;91.90
26707;DHT22;14319;49.422;10.934;2023-02-23T11:03:16;10.90;90.50
26707;DHT22;14319;49.422;10.934;2023-02-23T11:05:43;10.80;90.60
26707;DHT22;14319;49.422;10.934;2023-02-23T11:07:45;10.70;90.10
26707;DHT22;14319;49.422;10.934;2023-02-23T11:09:46;10.50;91.40
26707;DHT22;14319;49.422;10.934;2023-02-23T11:13:57;10.60;90.90
26707;DHT22;14319;49.422;10.934;2023-02-23T11:15:59;10.60;91.30
26707;DHT22;14319;49.422;10.934;2023-02-23T11:18:04;10.50;91.80
26707;DHT22;14319;49.422;10.934;2023-02-23T11:22:20;10.70;91.20
26707;DHT22;14319;49.422;10.934;2023-02-23T11:24:33;10.60;91.30
26707;DHT22;14319;49.422;10.934;2023-02-23T11:26:39;10.50;91.30
26707;DHT22;14319;49.422;10.934;2023-02-23T11:28:42;10.40;92.10
26707;DHT22;14319;49.422;10.934;2023-02-23T11:30:43;10.60;91.70
26707;DHT22;14319;49.422;10.934;2023-02-23T11:32:44;10.70;91.30
26707;DHT22;14319;49.422;10.934;2023-02-23T11:37:21;10.40;91.70
26707;DHT22;14319;49.422;10.934;2023-02-23T11:39:22;10.40;91.60
26707;DHT22;14319;49.422;10.934;2023-02-23T11:41:23;10.50;92.20
26707;DHT22;14319;49.422;10.934;2023-02-23T11:43:24;10.70;91.50
26707;DHT22;14319;49.422;10.934;2023-02-23T11:45:36;11.00;91.10
26707;DHT22;14319;49.422;10.934;2023-02-23T11:47:43;11.10;89.70
26707;DHT22;14319;49.422;10.934;2023-02-23T11:49:47;11.00;89.20
26707;DHT22;14319;49.422;10.934;2023-02-23T11:51:49;11.10;88.60
26707;DHT22;14319;49.422;10.934;2023-02-23T11:53:51;10.80;90.70
26707;DHT22;14319;49.422;10.934;2023-02-23T11:55:53;10.80;89.70
26707;DHT22;14319;49.422;10.934;2023-02-23T11:58:23;11.00;88.80
26707;DHT22;14319;49.422;10.934;2023-02-23T12:00:25;11.00;89.20
26707;DHT22;14319;49.422;10.934;2023-02-23T12:02:30;10.90;89.20
26707;DHT22;14319;49.422;10.934;2023-02-23T12:04:36;11.00;88.70
26707;DHT22;14319;49.422;10.934;2023-02-23T12:06:39;10.90;89.70
26707;DHT22;14319;49.422;10.934;2023-02-23T12:08:50;11.10;88.70
26707;DHT22;14319;49.422;10.934;2023-02-23T12:10:57;11.20;89.20
26707;DHT22;14319;49.422;10.934;2023-02-23T12:17:28;11.10;88.30
26707;DHT22;14319;49.422;10.934;2023-02-23T12:19:35;10.80;89.20
26707;DHT22;14319;49.422;10.934;2023-02-23T12:23:59;10.50;90.60
26707;DHT22;14319;49.422;10.934;2023-02-23T12:26:15;10.40;91.20
26707;DHT22;14319;49.422;10.934;2023-02-23T12:30:43;10.60;90.40
26707;DHT22;14319;49.422;10.934;2023-02-23T12:35:05;10.50;90.80
26707;DHT22;14319;49.422;10.934;2023-02-23T12:41:46;10.90;90.10
26707;DHT22;14319;49.422;10.934;2023-02-23T12:46:18;11.20;88.70
26707;DHT22;14319;49.422;10.934;2023-02-23T12:50:53;11.10;89.20
26707;DHT22;14319;49.422;10.934;2023-02-23T12:53:04;11.10;89.90
26707;DHT22;14319;49.422;10.934;2023-02-23T12:55:12;11.00;89.20
26707;DHT22;14319;49.422;10.934;2023-02-23T12:57:21;11.00;89.70
26707;DHT22;14319;49.422;10.934;2023-02-23T13:02:00;11.10;90.40
26707;DHT22;14319;49.422;10.934;2023-02-23T13:06:35;11.40;89.00
26707;DHT22;14319;49.422;10.934;2023-02-23T13:08:52;11.30;88.90
26707;DHT22;14319;49.422;10.934;2023-02-23T13:11:01;11.40;90.30
26707;DHT22;14319;49.422;10.934;2023-02-23T13:13:33;11.40;89.60
26707;DHT22;14319;49.422;10.934;2023-02-23T13:20:31;11.90;88.40
26707;DHT22;14319;49.422;10.934;2023-02-23T13:22:55;12.10;87.80
26707;DHT22;14319;49.422;10.934;2023-02-23T13:24:59;12.10;86.50
26707;DHT22;14319;49.422;10.934;2023-02-23T13:27:22;12.30;87.10
26707;DHT22;14319;49.422;10.934;2023-02-23T13:29:39;12.50;86.50
26707;DHT22;14319;49.422;10.934;2023-02-23T13:31:40;12.50;86.80
26707;DHT22;14319;49.422;10.934;2023-02-23T13:33:42;12.40;85.30
26707;DHT22;14319;49.422;10.934;2023-02-23T13:35:43;12.50;83.40
26707;DHT22;14319;49.422;10.934;2023-02-23T13:38:00;12.50;84.50
26707;DHT22;14319;49.422;10.934;2023-02-23T13:40:29;12.70;84.40
26707;DHT22;14319;49.422;10.934;2023-02-23T13:47:33;12.40;84.60
26707;DHT22;14319;49.422;10.934;2023-02-23T13:49:37;12.50;84.70
26707;DHT22;14319;49.422;10.934;2023-02-23T13:51:49;12.40;84.80
26707;DHT22;14319;49.422;10.934;2023-02-23T13:56:00;12.00;84.40
26707;DHT22;14319;49.422;10.934;2023-02-23T13:58:12;11.80;85.20
26707;DHT22;14319;49.422;10.934;2023-02-23T14:00:20;11.80;86.80
26707;DHT22;14319;49.422;10.934;2023-02-23T14:02:29;11.80;87.00
26707;DHT22;14319;49.422;10.934;2023-02-23T14:04:36;11.80;88.10
26707;DHT22;14319;49.422;10.934;2023-02-23T14:06:48;11.80;87.40
26707;DHT22;14319;49.422;10.934;2023-02-23T14:08:53;11.80;87.40
26707;DHT22;14319;49.422;10.934;2023-02-23T14:10:54;11.90;87.30
26707;DHT22;14319;49.422;10.934;2023-02-23T14:19:41;11.70;88.90
26707;DHT22;14319;49.422;10.934;2023-02-23T14:21:48;11.70;89.30
26707;DHT22;14319;49.422;10.934;2023-02-23T14:23:53;11.70;89.10
26707;DHT22;14319;49.422;10.934;2023-02-23T14:26:42;11.50;89.30
26707;DHT22;14319;49.422;10.934;2023-02-23T14:28:44;11.60;89.80
26707;DHT22;14319;49.422;10.934;2023-02-23T14:30:48;11.60;89.00
26707;DHT22;14319;49.422;10.934;2023-02-23T14:32:50;11.70;89.40
26707;DHT22;14319;49.422;10.934;2023-02-23T14:34:57;11.70;89.60
26707;DHT22;14319;49.422;10.934;2023-02-23T14:37:13;11.80;88.90
26707;DHT22;14319;49.422;10.934;2023-02-23T14:39:23;11.80;88.20
26707;DHT22;14319;49.422;10.934;2023-02-23T14:45:45;11.90;88.50
26707;DHT22;14319;49.422;10.934;2023-02-23T14:47:47;11.70;88.00
26707;DHT22;14319;49.422;10.934;2023-02-23T14:49:52;11.70;89.30
26707;DHT22;14319;49.422;10.934;2023-02-23T14:51:55;11.50;89.30
26707;DHT22;14319;49.422;10.934;2023-02-23T14:53:59;11.60;89.80